Time;durP1;ratioP1;P1;durP2;ratioP2;P2;SDS_P1;SDS_P2;PMS_P1;PMS_P2;Temp;Humidity;BMP_temperature;BMP_pressure;BME280_temperature;BME280_humidity;BME280_pressure;Samples;Min_cycle;Max_cycle;Signal;HPM_P1;HPM_P2
2022/07/10 00:00:27;;;;;;;4.57;1.57;;;;;;;14.77;100.00;99824.53;4991732;28;20196;-78
2022/07/10 00:02:56;;;;;;;3.93;1.63;;;;;;;14.80;100.00;99832.28;4989944;28;20206;-77
2022/07/10 00:05:26;;;;;;;3.33;1.50;;;;;;;14.80;100.00;99824.28;4987741;28;20223;-78
2022/07/10 00:07:54;;;;;;;4.50;1.67;;;;;;;14.77;100.00;99827.19;4988395;28;20195;-78
2022/07/10 00:10:23;;;;;;;5.27;1.47;;;;;;;14.78;100.00;99834.22;4988220;28;20199;-77
2022/07/10 00:12:53;;;;;;;3.53;1.50;;;;;;;14.76;100.00;99825.44;4991069;28;20278;-77
2022/07/10 00:15:21;;;;;;;6.23;1.50;;;;;;;14.85;100.00;99824.81;4984837;28;20191;-77
2022/07/10 00:17:49;;;;;;;3.47;1.50;;;;;;;14.70;100.00;99833.06;4986800;28;20645;-78
2022/07/10 00:20:18;;;;;;;8.40;1.50;;;;;;;14.60;100.00;99831.03;4989836;28;20210;-79
2022/07/10 00:22:46;;;;;;;5.20;1.50;;;;;;;14.70;100.00;99831.25;4986373;28;20198;-78
2022/07/10 00:25:15;;;;;;;4.13;1.43;;;;;;;14.68;100.00;99826.97;4985536;28;20219;-78
2022/07/10 00:27:44;;;;;;;6.20;1.73;;;;;;;14.60;100.00;99833.69;4985721;28;20210;-78
2022/07/10 00:30:13;;;;;;;4.87;1.57;;;;;;;14.59;100.00;99826.66;4991108;28;20195;-78
2022/07/10 00:32:42;;;;;;;4.50;1.37;;;;;;;14.49;100.00;99825.59;4989606;28;20207;-78
2022/07/10 00:35:10;;;;;;;2.40;1.30;;;;;;;14.54;100.00;99827.94;4996108;28;20207;-78
2022/07/10 00:37:38;;;;;;;4.30;1.53;;;;;;;14.17;100.00;99822.44;4990743;28;20241;-78
2022/07/10 00:40:08;;;;;;;4.37;1.70;;;;;;;14.26;100.00;99826.28;4986578;28;20270;-78
2022/07/10 00:42:37;;;;;;;2.80;1.47;;;;;;;14.35;100.00;99828.31;4930823;28;20196;-78
2022/07/10 00:45:06;;;;;;;2.40;1.53;;;;;;;14.34;100.00;99831.94;4932751;28;20225;-78
2022/07/10 00:47:36;;;;;;;2.83;1.60;;;;;;;14.35;100.00;99830.13;4929696;29;20225;-79
2022/07/10 00:50:05;;;;;;;4.03;1.43;;;;;;;14.29;100.00;99831.41;4931249;28;20213;-78
2022/07/10 00:52:38;;;;;;;3.47;1.63;;;;;;;14.23;100.00;99838.00;4935292;28;20250;-78
2022/07/10 00:55:10;;;;;;;3.93;1.70;;;;;;;14.21;100.00;99837.25;4928068;29;20259;-78
2022/07/10 00:57:40;;;;;;;3.43;1.60;;;;;;;14.11;100.00;99841.50;4928128;29;20281;-78
2022/07/10 01:00:11;;;;;;;3.70;1.53;;;;;;;14.08;100.00;99848.84;4946768;28;20206;-78
2022/07/10 01:02:44;;;;;;;4.17;1.40;;;;;;;14.21;100.00;99847.06;4987358;28;20237;-78
2022/07/10 01:05:12;;;;;;;4.30;1.70;;;;;;;14.30;100.00;99836.63;4986223;28;20219;-78
2022/07/10 01:07:40;;;;;;;5.97;1.60;;;;;;;14.38;100.00;99833.44;4995087;28;20203;-78
2022/07/10 01:10:09;;;;;;;7.33;1.80;;;;;;;14.30;100.00;99833.13;4988232;28;20206;-78
2022/07/10 01:12:38;;;;;;;7.33;1.73;;;;;;;14.30;100.00;99833.13;4989138;28;20282;-79
2022/07/10 01:15:10;;;;;;;2.70;1.47;;;;;;;14.29;100.00;99839.41;4987404;28;20195;-78
2022/07/10 01:17:39;;;;;;;4.17;1.40;;;;;;;14.13;100.00;99828.94;4937299;28;20207;-78
2022/07/10 01:20:10;;;;;;;6.17;1.83;;;;;;;14.15;100.00;99834.16;4990475;28;20278;-78
2022/07/10 01:22:39;;;;;;;5.50;1.53;;;;;;;14.05;100.00;99836.59;4988811;28;20207;-78
2022/07/10 01:25:08;;;;;;;4.27;1.60;;;;;;;14.09;100.00;99832.78;4982788;28;20219;-78
2022/07/10 01:27:36;;;;;;;9.43;2.17;;;;;;;13.93;100.00;99840.09;4991335;28;20203;-78
2022/07/10 01:30:05;;;;;;;3.67;1.40;;;;;;;13.91;100.00;99831.34;4993486;28;20191;-78
2022/07/10 01:32:41;;;;;;;7.20;1.73;;;;;;;14.04;100.00;99834.88;4989727;28;20203;-78
2022/07/10 01:35:11;;;;;;;5.23;1.60;;;;;;;14.00;100.00;99828.06;4993392;28;20202;-78
2022/07/10 01:37:41;;;;;;;3.13;1.60;;;;;;;13.90;100.00;99829.66;4993447;28;20231;-78
2022/07/10 01:40:10;;;;;;;4.80;1.70;;;;;;;14.01;100.00;99838.63;4988638;28;20214;-78
2022/07/10 01:42:39;;;;;;;3.23;1.50;;;;;;;14.00;100.00;99836.91;4997921;28;20215;-78
2022/07/10 01:45:08;;;;;;;6.43;1.50;;;;;;;14.03;100.00;99839.34;4990463;28;20187;-78
2022/07/10 01:47:37;;;;;;;6.43;1.77;;;;;;;14.10;100.00;99836.28;4986387;28;20219;-78
2022/07/10 01:50:07;;;;;;;4.40;1.50;;;;;;;14.16;100.00;99835.84;4989569;28;20199;-78
2022/07/10 01:52:35;;;;;;;4.07;1.30;;;;;;;14.10;100.00;99825.63;4990540;28;20210;-78
2022/07/10 01:55:06;;;;;;;7.27;1.70;;;;;;;14.18;100.00;99828.59;4989486;28;20213;-78
2022/07/10 01:57:36;;;;;;;2.13;1.37;;;;;;;14.22;100.00;99827.47;4988242;28;20680;-79
2022/07/10 02:00:05;;;;;;;2.47;1.60;;;;;;;14.15;100.00;99826.16;4989045;28;20647;-78
2022/07/10 02:02:33;;;;;;;4.97;1.90;;;;;;;14.26;100.00;99831.59;4942376;28;20195;-78
2022/07/10 02:05:00;;;;;;;3.77;1.60;;;;;;;14.20;100.00;99824.06;4991252;28;20187;-78
2022/07/10 02:07:28;;;;;;;3.93;1.60;;;;;;;14.14;100.00;99824.47;4990256;28;20199;-78
2022/07/10 02:09:57;;;;;;;6.27;1.90;;;;;;;14.17;100.00;99830.41;4990174;28;20290;-78
2022/07/10 02:12:26;;;;;;;3.47;1.80;;;;;;;14.13;100.00;99831.59;4990167;28;20222;-78
2022/07/10 02:14:59;;;;;;;2.80;1.70;;;;;;;14.18;100.00;99824.13;4989174;28;20230;-78
2022/07/10 02:17:27;;;;;;;6.70;1.87;;;;;;;14.19;100.00;99836.53;4988843;28;20203;-78
2022/07/10 02:19:55;;;;;;;3.90;1.60;;;;;;;14.06;100.00;99838.28;4989986;28;20204;-78
2022/07/10 02:22:23;;;;;;;4.07;1.80;;;;;;;14.09;100.00;99830.13;4993020;28;20207;-78
2022/07/10 02:24:53;;;;;;;3.00;1.80;;;;;;;14.20;100.00;99829.38;4992856;28;20203;-78
2022/07/10 02:27:22;;;;;;;2.50;1.50;;;;;;;14.21;100.00;99831.09;4989753;28;20230;-78
2022/07/10 02:29:52;;;;;;;3.67;1.70;;;;;;;14.14;100.00;99825.31;4989997;28;20256;-78
2022/07/10 02:32:21;;;;;;;4.37;1.60;;;;;;;14.18;100.00;99823.28;4992448;28;20676;-78
2022/07/10 02:34:50;;;;;;;5.83;1.70;;;;;;;14.24;100.00;99829.06;4983226;28;20252;-78
2022/07/10 02:37:18;;;;;;;3.90;1.57;;;;;;;14.22;100.00;99832.78;5002547;28;20234;-78
2022/07/10 02:39:46;;;;;;;6.73;1.53;;;;;;;14.22;100.00;99822.13;4989142;28;20286;-78
2022/07/10 02:42:14;;;;;;;4.10;1.50;;;;;;;14.16;100.00;99826.06;4993506;28;20283;-78
2022/07/10 02:44:43;;;;;;;3.07;1.80;;;;;;;14.20;100.00;99813.41;4987720;28;20274;-78
2022/07/10 02:47:13;;;;;;;3.87;1.60;;;;;;;14.15;100.00;99811.03;4987529;28;20306;-78
2022/07/10 02:49:41;;;;;;;6.23;1.90;;;;;;;14.21;100.00;99812.44;4986530;28;20203;-78
2022/07/10 02:52:09;;;;;;;4.00;1.60;;;;;;;14.22;100.00;99812.31;4992080;28;20188;-78
2022/07/10 02:54:38;;;;;;;3.97;1.60;;;;;;;14.19;100.00;99807.22;4983906;28;20218;-78
2022/07/10 02:57:06;;;;;;;4.23;1.53;;;;;;;14.33;100.00;99816.91;4992147;28;20274;-78
2022/07/10 02:59:35;;;;;;;3.67;1.20;;;;;;;14.35;100.00;99803.47;4987720;28;20226;-78
2022/07/10 03:02:03;;;;;;;5.30;1.70;;;;;;;14.42;100.00;99802.94;4991957;28;20199;-78
2022/07/10 03:04:33;;;;;;;4.40;1.60;;;;;;;14.56;100.00;99807.34;4953977;28;20211;-78
2022/07/10 03:07:02;;;;;;;2.77;1.57;;;;;;;14.58;100.00;99816.09;4991841;28;20249;-78
2022/07/10 03:09:30;;;;;;;3.70;1.50;;;;;;;14.60;100.00;99815.03;4990915;28;20203;-79
2022/07/10 03:11:58;;;;;;;4.23;1.50;;;;;;;14.63;100.00;99821.94;4989255;28;20191;-78
2022/07/10 03:14:26;;;;;;;4.33;1.83;;;;;;;14.38;100.00;99816.56;4982863;28;20232;-78
2022/07/10 03:16:55;;;;;;;6.63;1.60;;;;;;;14.35;100.00;99816.81;4988003;28;20195;-78
2022/07/10 03:19:23;;;;;;;4.73;1.60;;;;;;;14.23;100.00;99808.69;4989329;28;20207;-78
2022/07/10 03:21:53;;;;;;;4.60;1.60;;;;;;;14.36;100.00;99805.19;4992151;28;20194;-78
2022/07/10 03:24:21;;;;;;;2.63;1.43;;;;;;;14.40;100.00;99812.03;4991830;28;20214;-78
2022/07/10 03:26:49;;;;;;;4.57;1.57;;;;;;;14.32;100.00;99812.53;4988887;28;20215;-78
2022/07/10 03:29:17;;;;;;;2.90;1.40;;;;;;;14.34;100.00;99815.94;4989545;28;20206;-78
2022/07/10 03:31:50;;;;;;;4.97;1.43;;;;;;;14.43;100.00;99817.97;4990461;28;20223;-78
2022/07/10 03:34:18;;;;;;;4.57;1.70;;;;;;;14.38;100.00;99824.56;4986327;28;20203;-78
2022/07/10 03:36:46;;;;;;;5.83;1.53;;;;;;;14.33;100.00;99816.91;4986991;28;20238;-79
2022/07/10 03:39:16;;;;;;;4.67;1.60;;;;;;;14.33;100.00;99820.44;4991848;28;20657;-78
2022/07/10 03:41:45;;;;;;;5.70;1.60;;;;;;;14.33;100.00;99820.44;4987146;28;20206;-78
2022/07/10 03:44:13;;;;;;;6.90;1.53;;;;;;;14.57;100.00;99822.38;4991467;28;20195;-79
2022/07/10 03:46:41;;;;;;;5.33;1.70;;;;;;;14.52;100.00;99828.03;4991585;28;20234;-78
2022/07/10 03:49:10;;;;;;;5.13;1.40;;;;;;;14.45;100.00;99829.41;4987346;28;20209;-78
2022/07/10 03:51:38;;;;;;;7.93;1.73;;;;;;;14.32;100.00;99831.19;4995524;28;20242;-78
2022/07/10 03:54:06;;;;;;;5.77;1.53;;;;;;;14.29;100.00;99831.41;4989650;28;20319;-78
2022/07/10 03:59:22;;;;;;;3.80;1.60;;;;;;;14.25;100.00;99830.75;5001603;28;20210;-78
2022/07/10 04:01:50;;;;;;;4.30;1.60;;;;;;;14.43;100.00;99836.63;4989878;28;20203;-78
2022/07/10 04:04:18;;;;;;;3.73;1.40;;;;;;;14.26;100.00;99828.94;4991480;28;20642;-78
2022/07/10 04:06:46;;;;;;;5.97;1.43;;;;;;;14.35;100.00;99833.66;4988492;28;20751;-78
2022/07/10 04:09:15;;;;;;;4.73;1.40;;;;;;;14.29;100.00;99829.59;4991967;28;20196;-78
2022/07/10 04:11:45;;;;;;;2.33;1.53;;;;;;;14.25;100.00;99828.09;4988091;28;20207;-78
2022/07/10 04:14:13;;;;;;;5.17;1.70;;;;;;;14.16;100.00;99830.53;4986625;28;20207;-78
2022/07/10 04:16:41;;;;;;;5.80;1.40;;;;;;;14.26;100.00;99829.78;4988743;28;20199;-78
2022/07/10 04:19:10;;;;;;;2.80;1.33;;;;;;;14.29;100.00;99828.75;4988134;28;20260;-78
2022/07/10 04:21:38;;;;;;;3.47;1.50;;;;;;;14.18;100.00;99823.28;4986693;28;20202;-78
2022/07/10 04:24:07;;;;;;;3.13;1.20;;;;;;;14.24;100.00;99820.22;4991053;28;20213;-79
2022/07/10 04:26:35;;;;;;;3.37;1.40;;;;;;;14.25;100.00;99822.75;4986750;28;20199;-78
2022/07/10 04:29:05;;;;;;;4.00;1.37;;;;;;;14.26;100.00;99823.63;4991148;28;20226;-79
2022/07/10 04:31:33;;;;;;;4.60;1.50;;;;;;;14.26;100.00;99828.94;4989731;28;20199;-78
2022/07/10 04:34:02;;;;;;;6.37;1.30;;;;;;;14.29;100.00;99823.44;4981294;28;20207;-78
2022/07/10 04:36:31;;;;;;;5.40;1.30;;;;;;;14.29;100.00;99824.28;4992481;28;20235;-78
2022/07/10 04:38:59;;;;;;;4.77;1.17;;;;;;;14.23;100.00;99816.69;4988721;28;20203;-78
2022/07/10 04:41:27;;;;;;;3.37;1.40;;;;;;;14.35;100.00;99822.97;4988120;28;20221;-78
2022/07/10 04:43:55;;;;;;;7.13;1.70;;;;;;;14.30;100.00;99822.47;4985180;28;20203;-78
2022/07/10 04:46:25;;;;;;;4.57;1.20;;;;;;;14.36;100.00;99827.34;4985644;28;20199;-78
2022/07/10 04:48:54;;;;;;;7.27;1.40;;;;;;;14.27;100.00;99823.50;4990481;28;20219;-78
2022/07/10 04:51:23;;;;;;;5.53;1.17;;;;;;;14.23;100.00;99834.50;4988740;28;20195;-78
2022/07/10 04:53:51;;;;;;;7.37;1.40;;;;;;;14.35;100.00;99830.13;4985414;28;20195;-78
2022/07/10 04:56:19;;;;;;;5.60;1.70;;;;;;;14.40;100.00;99836.84;4987712;28;20206;-78
2022/07/10 04:58:48;;;;;;;6.10;1.90;;;;;;;14.22;100.00;99843.44;4991285;28;20204;-78
2022/07/10 05:01:19;;;;;;;4.17;1.70;;;;;;;14.20;100.00;99842.69;4985552;28;20202;-78
2022/07/10 05:03:49;;;;;;;4.53;1.53;;;;;;;14.14;100.00;99851.94;4991230;28;20256;-78
2022/07/10 05:06:17;;;;;;;5.80;1.33;;;;;;;14.20;100.00;99848.03;4991061;28;20658;-78
2022/07/10 05:08:45;;;;;;;4.60;1.30;;;;;;;14.15;100.00;99847.47;4992105;28;20227;-78
2022/07/10 05:11:14;;;;;;;5.37;1.20;;;;;;;14.10;100.00;99854.94;4994852;28;20202;-78
2022/07/10 05:13:45;;;;;;;3.77;1.57;;;;;;;14.14;100.00;99854.63;4994620;28;20227;-78
2022/07/10 05:16:13;;;;;;;5.30;1.23;;;;;;;14.03;100.00;99855.34;4992590;28;20229;-78
2022/07/10 05:18:49;;;;;;;4.90;1.40;;;;;;;14.08;100.00;99859.50;4991644;28;20195;-78
2022/07/10 05:21:17;;;;;;;4.87;1.20;;;;;;;14.06;100.00;99856.94;4993682;28;20203;-78
2022/07/10 05:23:45;;;;;;;5.80;1.03;;;;;;;14.09;100.00;99856.75;4998785;28;20214;-78
2022/07/10 05:26:13;;;;;;;3.60;1.40;;;;;;;14.09;100.00;99854.09;4993904;28;20714;-78
2022/07/10 05:28:41;;;;;;;2.83;1.47;;;;;;;13.80;100.00;99847.16;4991747;28;20716;-78
2022/07/10 05:31:09;;;;;;;4.00;1.30;;;;;;;13.64;100.00;99850.84;4984223;28;20211;-78
2022/07/10 05:33:40;;;;;;;4.87;1.53;;;;;;;13.63;100.00;99851.81;4990735;28;20206;-78
2022/07/10 05:36:10;;;;;;;6.70;1.47;;;;;;;13.78;100.00;99854.41;4993579;28;20199;-78
2022/07/10 05:38:39;;;;;;;5.23;1.60;;;;;;;13.84;100.00;99862.84;4990718;28;20298;-78
2022/07/10 05:41:07;;;;;;;7.90;1.50;;;;;;;13.70;100.00;99853.13;4988199;28;20199;-77
2022/07/10 05:43:36;;;;;;;4.93;1.60;;;;;;;13.88;100.00;99861.69;4989340;28;20206;-78
2022/07/10 05:46:05;;;;;;;3.70;1.27;;;;;;;13.92;100.00;99860.53;4937913;28;20197;-79
2022/07/10 05:48:34;;;;;;;5.97;1.40;;;;;;;14.06;100.00;99859.59;4931068;29;20706;-78
2022/07/10 05:51:02;;;;;;;4.93;1.53;;;;;;;14.08;100.00;99857.69;4933817;29;20220;-78
2022/07/10 05:53:52;;;;;;;4.40;1.60;;;;;;;14.20;100.00;99853.38;4933449;28;20279;-78
2022/07/10 05:56:20;;;;;;;3.20;1.60;;;;;;;14.04;100.00;99867.69;4930005;29;20197;-78
2022/07/10 05:58:49;;;;;;;3.10;1.30;;;;;;;14.17;100.00;99867.72;4933314;29;20256;-78
2022/07/10 06:01:18;;;;;;;5.50;1.30;;;;;;;13.99;100.00;99861.84;4932256;29;20201;-78
2022/07/10 06:03:46;;;;;;;3.80;1.30;;;;;;;14.04;100.00;99865.03;4946333;28;20673;-78
2022/07/10 06:06:15;;;;;;;3.50;1.40;;;;;;;14.23;100.00;99869.13;4988319;28;20234;-78
2022/07/10 06:08:44;;;;;;;3.60;1.30;;;;;;;14.36;100.00;99869.13;4989131;28;20219;-78
2022/07/10 06:11:15;;;;;;;11.37;2.50;;;;;;;14.35;100.00;99856.78;4992639;28;20207;-78
2022/07/10 06:13:44;;;;;;;3.77;1.10;;;;;;;14.38;100.00;99862.78;4988956;28;20200;-78
2022/07/10 06:16:12;;;;;;;4.10;1.50;;;;;;;14.55;100.00;99874.94;4989137;28;20650;-78
2022/07/10 06:18:40;;;;;;;7.10;1.70;;;;;;;14.39;100.00;99874.28;4990943;28;20231;-78
2022/07/10 06:21:09;;;;;;;2.97;1.23;;;;;;;14.45;100.00;99872.06;4993324;28;20294;-78
2022/07/10 06:23:37;;;;;;;4.37;1.20;;;;;;;14.38;100.00;99870.78;4989809;28;20221;-78
2022/07/10 06:26:06;;;;;;;5.40;1.33;;;;;;;14.51;100.00;99870.81;4993865;28;20191;-77
2022/07/10 06:28:36;;;;;;;3.17;1.20;;;;;;;14.46;100.00;99872.91;4987893;28;20728;-78
2022/07/10 06:31:06;;;;;;;4.83;1.40;;;;;;;14.54;100.00;99873.25;4988466;28;20282;-78
2022/07/10 06:33:36;;;;;;;5.93;1.37;;;;;;;14.57;100.00;99863.25;4992547;28;20198;-77
2022/07/10 06:36:05;;;;;;;7.20;1.37;;;;;;;14.68;100.00;99864.31;4988192;28;20226;-78
2022/07/10 06:38:33;;;;;;;5.63;1.40;;;;;;;14.81;100.00;99860.66;4989610;28;20200;-78
2022/07/10 06:41:02;;;;;;;6.30;1.30;;;;;;;14.75;100.00;99857.56;4995299;28;20278;-78
2022/07/10 06:43:30;;;;;;;6.73;1.30;;;;;;;14.66;100.00;99861.72;4990555;28;20218;-78
2022/07/10 06:46:00;;;;;;;4.37;1.20;;;;;;;14.76;100.00;99846.78;4990674;28;20211;-78
2022/07/10 06:48:29;;;;;;;4.13;1.23;;;;;;;14.79;100.00;99853.75;4993322;28;20283;-78
2022/07/10 06:50:57;;;;;;;5.03;1.10;;;;;;;14.78;100.00;99860.03;4996841;28;20199;-80
2022/07/10 06:53:26;;;;;;;6.07;1.40;;;;;;;14.70;100.00;99852.56;4986490;28;20207;-78
2022/07/10 06:55:55;;;;;;;3.63;1.30;;;;;;;14.76;100.00;99856.59;4992423;28;20203;-78
2022/07/10 06:58:25;;;;;;;2.87;1.20;;;;;;;14.84;100.00;99855.09;4989312;28;20196;-77
2022/07/10 07:00:53;;;;;;;4.00;1.20;;;;;;;14.78;100.00;99855.56;4992311;28;20293;-79
2022/07/10 07:03:23;;;;;;;5.07;1.40;;;;;;;14.46;100.00;99852.44;4982346;28;20199;-78
2022/07/10 07:05:52;;;;;;;3.33;1.57;;;;;;;14.68;100.00;99862.50;4989346;28;20270;-78
2022/07/10 07:08:20;;;;;;;4.27;1.43;;;;;;;14.84;100.00;99863.09;4986562;28;20226;-78
2022/07/10 07:10:49;;;;;;;3.67;1.10;;;;;;;14.86;100.00;99868.34;4992007;28;20207;-78
2022/07/10 07:13:17;;;;;;;4.10;1.33;;;;;;;14.67;100.00;99867.91;4988082;28;20294;-78
2022/07/10 07:15:51;;;;;;;4.60;1.20;;;;;;;14.75;100.00;99876.22;4992100;28;20198;-78
2022/07/10 07:18:21;;;;;;;5.77;1.20;;;;;;;14.68;100.00;99872.31;4987900;28;20195;-78
2022/07/10 07:23:36;;;;;;;4.33;1.00;;;;;;;14.74;100.00;99871.88;5000356;28;20203;-78
2022/07/10 07:26:04;;;;;;;4.50;1.30;;;;;;;14.82;100.00;99869.53;4990449;28;20210;-77
2022/07/10 07:28:33;;;;;;;4.67;1.37;;;;;;;14.75;100.00;99865.56;4992879;28;20302;-78
2022/07/10 07:31:02;;;;;;;6.03;1.70;;;;;;;14.83;100.00;99868.56;4985858;28;20243;-78
2022/07/10 07:33:31;;;;;;;4.60;1.07;;;;;;;14.92;100.00;99880.41;4993108;28;20207;-78
2022/07/10 07:36:01;;;;;;;4.87;1.40;;;;;;;14.85;100.00;99879.97;4990950;28;20203;-78
2022/07/10 07:38:29;;;;;;;3.70;1.20;;;;;;;15.05;100.00;99875.88;4992967;28;20199;-78
2022/07/10 07:40:57;;;;;;;5.00;1.63;;;;;;;14.90;100.00;99875.19;4989468;28;20657;-78
2022/07/10 07:43:25;;;;;;;3.67;1.57;;;;;;;14.84;100.00;99871.13;4993096;28;20199;-78
2022/07/10 07:45:54;;;;;;;6.67;1.37;;;;;;;15.04;100.00;99876.84;4992177;28;20218;-79
2022/07/10 07:48:22;;;;;;;4.63;1.30;;;;;;;15.20;100.00;99868.63;4985930;28;20236;-78
2022/07/10 07:50:51;;;;;;;4.40;1.30;;;;;;;15.34;100.00;99872.00;4991359;28;20725;-78
2022/07/10 07:53:21;;;;;;;8.33;1.60;;;;;;;15.25;100.00;99862.00;4989430;28;20369;-78
2022/07/10 07:55:49;;;;;;;5.00;1.47;;;;;;;15.41;100.00;99867.91;4990423;28;20208;-78
2022/07/10 07:58:17;;;;;;;4.70;1.40;;;;;;;15.43;100.00;99865.13;4991282;28;20222;-78
2022/07/10 08:00:45;;;;;;;5.67;1.30;;;;;;;15.52;100.00;99864.47;4986744;28;20206;-78
2022/07/10 08:03:14;;;;;;;4.80;1.30;;;;;;;15.25;100.00;99863.78;4992440;28;20282;-78
2022/07/10 08:05:42;;;;;;;5.47;1.27;;;;;;;15.25;100.00;99864.69;4986294;28;20277;-78
2022/07/10 08:08:11;;;;;;;2.87;1.20;;;;;;;15.31;100.00;99863.34;4990558;28;20200;-78
2022/07/10 08:10:40;;;;;;;4.90;1.40;;;;;;;15.44;100.00;99851.69;4988204;28;20239;-78
2022/07/10 08:13:12;;;;;;;2.77;1.33;;;;;;;15.65;100.00;99859.13;4991377;28;20191;-78
2022/07/10 08:15:41;;;;;;;5.03;1.30;;;;;;;15.80;100.00;99844.63;4988062;28;20191;-78
2022/07/10 08:18:09;;;;;;;3.30;1.20;;;;;;;16.09;100.00;99847.78;4986866;28;20199;-78
2022/07/10 08:20:37;;;;;;;4.20;1.17;;;;;;;16.11;100.00;99839.63;4987459;28;20200;-78
2022/07/10 08:23:06;;;;;;;2.57;1.10;;;;;;;16.20;100.00;99844.28;4985212;28;20207;-78
2022/07/10 08:25:35;;;;;;;4.50;1.17;;;;;;;16.36;100.00;99841.31;4991651;28;20222;-79
2022/07/10 08:28:07;;;;;;;4.73;1.60;;;;;;;16.52;100.00;99841.81;4987506;28;20219;-77
2022/07/10 08:30:35;;;;;;;6.47;1.27;;;;;;;16.65;100.00;99834.53;4988022;28;20681;-77
2022/07/10 08:33:04;;;;;;;4.43;1.93;;;;;;;16.36;100.00;99823.44;4980546;28;20191;-77
2022/07/10 08:35:33;;;;;;;5.07;1.23;;;;;;;16.30;100.00;99824.75;4987947;28;20278;-77
2022/07/10 08:38:01;;;;;;;2.53;1.23;;;;;;;16.29;100.00;99840.91;4985697;28;20310;-77
2022/07/10 08:40:36;;;;;;;2.20;1.00;;;;;;;16.34;100.00;99837.91;4992342;28;20203;-79
2022/07/10 08:43:07;;;;;;;3.40;1.20;;;;;;;16.48;100.00;99848.38;4987610;28;20233;-78
2022/07/10 08:45:35;;;;;;;6.13;1.50;;;;;;;16.43;100.00;99848.75;4990718;28;20734;-78
2022/07/10 08:48:08;;;;;;;6.27;1.40;;;;;;;16.63;100.00;99846.34;4986749;28;20196;-78
2022/07/10 08:50:39;;;;;;;7.43;1.30;;;;;;;16.39;100.00;99852.59;4985091;28;20223;-78
2022/07/10 08:53:10;;;;;;;3.40;1.27;;;;;;;16.45;100.00;99852.13;4990645;28;20232;-78
2022/07/10 08:55:38;;;;;;;4.70;1.43;;;;;;;16.40;100.00;99856.97;4990465;28;20646;-78
2022/07/10 08:58:09;;;;;;;5.27;1.43;;;;;;;16.30;100.00;99859.50;4990473;28;20250;-78
2022/07/10 09:00:37;;;;;;;7.40;1.37;;;;;;;16.07;100.00;99860.41;4987565;28;20278;-78
2022/07/10 09:03:06;;;;;;;5.77;1.50;;;;;;;16.37;100.00;99862.56;4989288;28;20223;-80
2022/07/10 09:05:35;;;;;;;7.07;1.50;;;;;;;16.38;100.00;99856.25;4987547;28;20658;-78
2022/07/10 09:08:03;;;;;;;3.97;1.30;;;;;;;16.36;100.00;99860.00;4990390;28;20206;-78
2022/07/10 09:10:32;;;;;;;5.17;1.30;;;;;;;16.27;100.00;99853.53;4987120;28;20223;-78
2022/07/10 09:13:01;;;;;;;4.47;1.33;;;;;;;16.27;100.00;99866.91;4983260;28;20207;-79
2022/07/10 09:15:33;;;;;;;4.50;1.43;;;;;;;16.45;100.00;99860.16;4990800;28;20195;-78
2022/07/10 09:18:02;;;;;;;8.00;1.50;;;;;;;16.57;100.00;99845.81;4989211;28;20203;-78
2022/07/10 09:20:33;;;;;;;3.37;1.20;;;;;;;16.84;100.00;99848.22;4987184;28;20199;-78
2022/07/10 09:23:17;;;;;;;6.13;1.20;;;;;;;17.11;100.00;99847.00;4990079;28;20218;-78
2022/07/10 09:25:47;;;;;;;3.80;1.40;;;;;;;17.03;100.00;99844.91;4987554;28;20195;-78
2022/07/10 09:28:18;;;;;;;5.20;1.23;;;;;;;17.31;100.00;99835.53;4987432;28;20199;-78
2022/07/10 09:30:49;;;;;;;5.57;1.70;;;;;;;17.65;100.00;99830.06;4987188;28;20226;-78
2022/07/10 09:33:23;;;;;;;3.60;1.33;;;;;;;18.07;100.00;99836.41;4985932;28;20329;-78
2022/07/10 09:36:05;;;;;;;5.50;1.10;;;;;;;17.94;100.00;99836.56;4987181;28;20255;-78
2022/07/10 09:38:51;;;;;;;2.83;1.00;;;;;;;17.99;100.00;99834.38;4994548;28;20230;-78
2022/07/10 09:41:22;;;;;;;4.33;1.10;;;;;;;18.19;100.00;99835.38;4989896;28;20301;-78
2022/07/10 09:43:52;;;;;;;6.07;1.13;;;;;;;18.08;100.00;99826.53;4988389;28;20734;-79
2022/07/10 09:46:24;;;;;;;4.27;1.30;;;;;;;18.02;100.00;99831.44;4957039;28;20205;-78
2022/07/10 09:49:08;;;;;;;4.77;1.30;;;;;;;18.13;100.00;99829.66;4956990;28;20204;-78
2022/07/10 09:51:38;;;;;;;4.27;1.37;;;;;;;17.95;100.00;99824.91;4947253;29;20232;-78
2022/07/10 09:54:16;;;;;;;4.10;1.07;;;;;;;17.95;100.00;99822.22;4964377;28;20205;-78
2022/07/10 09:56:46;;;;;;;3.87;1.20;;;;;;;18.31;100.00;99825.44;4964316;28;20266;-79
2022/07/10 09:59:16;;;;;;;5.13;1.30;;;;;;;18.47;100.00;99820.47;4948786;28;20196;-79
2022/07/10 10:01:48;;;;;;;2.90;1.17;;;;;;;18.46;100.00;99829.50;4948738;29;20196;-78
2022/07/10 10:04:19;;;;;;;5.33;1.30;;;;;;;18.41;100.00;99822.81;4967521;28;20666;-78
2022/07/10 10:06:51;;;;;;;2.37;1.10;;;;;;;19.00;100.00;99817.63;4993147;28;20226;-79
2022/07/10 10:09:25;;;;;;;2.43;1.20;;;;;;;19.02;100.00;99815.69;4990873;28;20398;-79
2022/07/10 10:11:59;;;;;;;5.90;1.20;;;;;;;19.10;100.00;99813.13;4989247;28;20234;-79
2022/07/10 10:14:29;;;;;;;2.23;1.07;;;;;;;19.39;93.15;99807.00;4992836;28;20274;-79
2022/07/10 10:17:01;;;;;;;3.03;1.10;;;;;;;19.56;90.50;99805.50;4991872;28;20308;-79
2022/07/10 10:22:19;;;;;;;3.57;1.00;;;;;;;19.72;86.34;99809.34;4992904;28;20654;-79
2022/07/10 10:24:49;;;;;;;2.40;0.90;;;;;;;19.94;84.92;99801.97;4987386;28;20207;-79
2022/07/10 10:27:18;;;;;;;3.63;1.30;;;;;;;19.73;87.88;99789.53;4995246;28;20203;-79
2022/07/10 10:29:49;;;;;;;3.67;1.10;;;;;;;20.09;87.17;99784.44;4990341;28;20218;-80
2022/07/10 10:32:19;;;;;;;6.13;1.10;;;;;;;19.87;83.25;99799.00;4987756;28;20365;-80
2022/07/10 10:34:55;;;;;;;4.13;1.00;;;;;;;20.36;83.37;99788.19;4990002;28;20229;-80
2022/07/10 10:37:36;;;;;;;3.13;1.20;;;;;;;20.42;82.96;99775.00;4990761;28;20254;-79
2022/07/10 10:40:06;;;;;;;5.43;2.57;;;;;;;20.94;80.53;99778.13;4992787;28;20255;-80
2022/07/10 10:42:36;;;;;;;3.27;1.30;;;;;;;21.01;79.16;99772.97;4988264;28;20214;-80
2022/07/10 10:45:32;;;;;;;6.97;2.77;;;;;;;21.69;69.34;99785.03;4990142;28;20195;-79
2022/07/10 10:48:08;;;;;;;4.73;3.00;;;;;;;21.98;70.38;99778.53;4986607;28;20282;-79
2022/07/10 10:50:57;;;;;;;4.30;1.00;;;;;;;21.04;69.17;99781.63;4992472;28;20215;-79
2022/07/10 10:53:28;;;;;;;3.20;1.27;;;;;;;22.15;67.67;99777.72;4986864;28;20298;-79
2022/07/10 10:56:24;;;;;;;4.13;1.07;;;;;;;21.66;67.67;99774.56;4988906;28;20196;-79
2022/07/10 10:58:52;;;;;;;5.10;1.10;;;;;;;20.33;74.06;99777.72;4998712;28;20268;-79
2022/07/10 11:01:27;;;;;;;4.87;1.13;;;;;;;21.03;72.45;99771.81;4991249;28;20195;-79
2022/07/10 11:04:17;;;;;;;3.67;1.20;;;;;;;21.40;72.76;99774.47;4992408;28;20225;-79
2022/07/10 11:06:49;;;;;;;3.83;1.20;;;;;;;21.25;70.26;99785.88;4990699;28;20658;-79
2022/07/10 11:09:25;;;;;;;3.13;1.20;;;;;;;21.71;71.44;99779.47;4992535;28;20684;-79
2022/07/10 11:12:05;;;;;;;4.50;1.10;;;;;;;21.69;69.49;99776.94;4992086;28;20214;-79
2022/07/10 11:14:36;;;;;;;3.50;1.50;;;;;;;21.71;71.61;99787.56;4989454;28;20207;-79
2022/07/10 11:17:04;;;;;;;4.17;0.90;;;;;;;21.55;68.47;99782.03;4995275;28;20210;-80
2022/07/10 11:19:35;;;;;;;3.10;1.20;;;;;;;21.63;66.17;99782.97;4992631;28;20244;-79
2022/07/10 11:22:44;;;;;;;6.63;1.20;;;;;;;21.45;66.73;99784.78;4989184;28;20199;-79
2022/07/10 11:25:30;;;;;;;3.50;1.10;;;;;;;21.79;65.79;99779.56;4989024;28;20188;-80
2022/07/10 11:28:08;;;;;;;3.07;1.10;;;;;;;22.40;64.98;99767.09;4992042;28;20207;-80
2022/07/10 11:30:47;;;;;;;4.00;1.42;;;;;;;22.45;63.06;99770.16;4991905;28;20210;-79
2022/07/10 11:33:16;;;;;;;2.90;0.93;;;;;;;22.23;65.89;99764.28;4990796;28;20693;-80
2022/07/10 11:35:51;;;;;;;4.40;1.08;;;;;;;21.54;68.06;99764.16;4991994;28;20222;-79
2022/07/10 11:38:20;;;;;;;5.43;1.27;;;;;;;21.28;69.99;99761.34;4985850;28;20235;-79
2022/07/10 11:40:49;;;;;;;3.70;1.17;;;;;;;20.79;71.99;99774.22;4982932;28;20206;-79
2022/07/10 11:43:20;;;;;;;2.23;0.87;;;;;;;21.35;68.64;99765.16;4991697;28;20199;-79
2022/07/10 11:45:48;;;;;;;2.80;1.10;;;;;;;21.28;68.82;99769.44;4986705;28;20203;-79
2022/07/10 11:48:21;;;;;;;3.20;1.10;;;;;;;21.40;68.90;99769.06;4990170;28;20210;-79